createdAt,value
2022-09-02T00:01:34.101Z,4.60
2022-09-02T00:06:37.904Z,4.30
2022-09-02T00:11:42.697Z,3.70
2022-09-02T00:16:50.783Z,5.60
2022-09-02T00:21:55.958Z,2.80
2022-09-02T00:26:59.190Z,3.50
2022-09-02T00:32:03.176Z,4.60
2022-09-02T00:37:06.418Z,4.80
2022-09-02T00:42:12.274Z,5.40
2022-09-02T00:47:15.606Z,3.60
2022-09-02T00:52:23.550Z,4.50
2022-09-02T00:57:31.711Z,4.80
2022-09-02T01:02:37.453Z,4.50
2022-09-02T01:07:42.539Z,3.50
2022-09-02T01:12:46.838Z,3.10
2022-09-02T01:17:52.740Z,3.00
2022-09-02T01:22:57.722Z,4.60
2022-09-02T01:28:05.929Z,3.80
2022-09-02T01:33:10.096Z,2.70
2022-09-02T01:38:13.690Z,3.20
2022-09-02T01:43:20.164Z,4.70
2022-09-02T01:48:25.294Z,4.20
2022-09-02T01:53:30.427Z,3.00
2022-09-02T01:58:33.878Z,3.20
2022-09-02T02:03:37.999Z,3.60
2022-09-02T02:08:42.557Z,3.80
2022-09-02T02:13:46.078Z,3.80
2022-09-02T02:18:50.028Z,3.40
2022-09-02T02:23:53.835Z,3.40
2022-09-02T02:28:57.128Z,3.00
2022-09-02T02:34:02.583Z,4.60
2022-09-02T02:39:09.679Z,6.80
2022-09-02T02:44:13.477Z,4.20
2022-09-02T02:49:17.016Z,3.00
2022-09-02T02:54:21.248Z,5.60
2022-09-02T02:59:25.703Z,10.00
2022-09-02T03:04:29.648Z,7.80
2022-09-02T03:09:33.751Z,6.30
2022-09-02T03:14:36.901Z,4.00
2022-09-02T03:19:46.609Z,9.90
2022-09-02T03:24:50.396Z,4.30
2022-09-02T03:29:53.770Z,6.20
2022-09-02T03:34:57.248Z,4.60
2022-09-02T03:40:02.152Z,7.30
2022-09-02T03:45:14.197Z,5.10
2022-09-02T03:50:19.501Z,4.60
2022-09-02T03:55:24.147Z,10.80
2022-09-02T04:00:32.924Z,6.00
2022-09-02T04:05:39.345Z,8.50
2022-09-02T04:10:42.779Z,5.60
2022-09-02T04:15:48.651Z,9.00
2022-09-02T04:20:52.808Z,6.70
2022-09-02T04:25:58.040Z,7.30
2022-09-02T04:31:05.456Z,4.50
2022-09-02T04:36:15.404Z,6.90
2022-09-02T04:47:32.627Z,5.20
2022-09-02T04:52:46.121Z,5.90
2022-09-02T04:57:50.407Z,5.50
2022-09-02T05:02:55.115Z,5.00
2022-09-02T05:07:58.801Z,6.00
2022-09-02T05:13:02.639Z,9.00
2022-09-02T05:18:06.284Z,8.20
2022-09-02T05:23:10.865Z,9.10
2022-09-02T05:28:17.349Z,11.90
2022-09-02T05:33:22.298Z,12.00
2022-09-02T05:38:25.777Z,4.40
2022-09-02T05:43:29.465Z,7.80
2022-09-02T05:48:53.034Z,5.80
2022-09-02T05:53:58.135Z,4.50
2022-09-02T05:59:01.951Z,7.50
2022-09-02T06:04:06.508Z,6.30
2022-09-02T06:09:13.063Z,2.90
2022-09-02T06:14:20.247Z,6.10
2022-09-02T06:19:25.263Z,3.60
2022-09-02T06:24:33.147Z,3.10
2022-09-02T06:29:42.110Z,8.20
2022-09-02T06:34:45.842Z,5.70
2022-09-02T06:39:49.103Z,5.50
2022-09-02T06:44:58.094Z,6.40
2022-09-02T06:50:02.249Z,7.20
2022-09-02T06:55:08.378Z,5.70
2022-09-02T07:00:13.447Z,7.20
2022-09-02T07:05:17.880Z,8.40
2022-09-02T07:10:22.852Z,7.80
2022-09-02T07:15:28.301Z,10.60
2022-09-02T07:20:32.309Z,6.50
2022-09-02T07:25:41.004Z,7.20
2022-09-02T07:30:44.754Z,4.20
2022-09-02T07:35:52.531Z,5.30
2022-09-02T07:40:57.117Z,3.00
2022-09-02T07:46:02.557Z,4.90
2022-09-02T07:51:07.467Z,5.00
2022-09-02T07:56:13.114Z,6.90
2022-09-02T08:01:19.998Z,1.50
2022-09-02T08:06:34.690Z,1.30
2022-09-02T08:11:39.186Z,1.40
2022-09-02T08:16:43.321Z,3.00
2022-09-02T08:21:46.525Z,3.40
2022-09-02T08:26:50.091Z,4.70
2022-09-02T08:31:54.167Z,1.90
2022-09-02T08:36:58.227Z,3.30
2022-09-02T08:42:08.278Z,1.80
2022-09-02T08:47:16.247Z,1.60
2022-09-02T08:52:27.846Z,7.70
2022-09-02T08:57:31.996Z,2.00
2022-09-02T09:02:49.322Z,3.10
2022-09-02T09:13:20.003Z,1.60
2022-09-02T09:18:30.483Z,4.90
2022-09-02T09:23:36.136Z,1.50
2022-09-02T09:28:42.845Z,4.90
2022-09-02T09:34:00.368Z,3.70
2022-09-02T09:44:41.524Z,0.80
2022-09-02T09:49:45.057Z,2.60
2022-09-02T09:55:04.304Z,4.60
2022-09-02T10:00:25.662Z,2.20
2022-09-02T10:05:33.422Z,1.00
2022-09-02T10:10:36.669Z,4.50
2022-09-02T10:15:47.990Z,1.40
2022-09-02T10:21:16.237Z,0.80
2022-09-02T10:26:33.162Z,3.00
2022-09-02T10:31:46.474Z,3.50
2022-09-02T10:37:08.246Z,2.20
2022-09-02T10:42:20.061Z,1.80
2022-09-02T10:47:32.093Z,1.10
2022-09-02T10:52:50.190Z,4.70
2022-09-02T10:58:00.014Z,4.30
2022-09-02T11:03:12.233Z,2.30
2022-09-02T11:08:27.268Z,1.90
2022-09-02T11:13:44.533Z,2.80
2022-09-02T11:18:58.165Z,0.50
2022-09-02T11:24:06.231Z,2.70
2022-09-02T11:29:17.761Z,3.20
2022-09-02T11:34:34.704Z,3.80
2022-09-02T11:40:11.575Z,3.10
2022-09-02T11:45:20.288Z,1.40
2022-09-02T11:50:39.486Z,2.80
2022-09-02T11:55:48.481Z,1.10
2022-09-02T12:01:24.375Z,0.90
2022-09-02T12:06:32.821Z,1.70
2022-09-02T12:11:46.484Z,2.80
2022-09-02T12:17:04.180Z,0.60
2022-09-02T12:22:33.004Z,2.30
2022-09-02T12:27:36.859Z,1.70
2022-09-02T12:33:08.774Z,4.20
2022-09-02T12:38:30.350Z,1.20
2022-09-02T12:43:47.370Z,2.80
2022-09-02T12:49:00.944Z,1.70
2022-09-02T12:54:06.078Z,1.70
2022-09-02T12:59:10.176Z,1.30
2022-09-02T13:04:30.151Z,2.40
2022-09-02T13:09:52.176Z,3.50
2022-09-02T13:15:04.675Z,5.00
2022-09-02T13:20:41.237Z,3.00
2022-09-02T13:26:19.137Z,2.10
2022-09-02T13:31:35.535Z,1.40
2022-09-02T13:36:42.949Z,2.00
2022-09-02T13:41:47.192Z,0.90
2022-09-02T13:46:52.212Z,1.90
2022-09-02T13:51:56.783Z,3.90
2022-09-02T13:57:03.467Z,1.10
2022-09-02T14:02:25.897Z,0.50
2022-09-02T14:07:36.436Z,1.30
2022-09-02T14:12:41.274Z,3.70
2022-09-02T14:17:44.461Z,2.70
2022-09-02T14:22:54.380Z,1.40
2022-09-02T14:28:00.108Z,1.20
2022-09-02T14:33:25.122Z,1.30
2022-09-02T14:38:32.904Z,1.60
2022-09-02T14:43:44.139Z,4.10
2022-09-02T14:48:55.662Z,3.80
2022-09-02T14:53:58.835Z,1.60
2022-09-02T14:59:02.158Z,3.00
2022-09-02T15:04:06.107Z,2.90
2022-09-02T15:09:09.634Z,3.40
2022-09-02T15:14:12.644Z,9.80
2022-09-02T15:19:16.006Z,20.40
2022-09-02T15:24:20.412Z,3.70
2022-09-02T15:29:28.821Z,2.50
2022-09-02T15:34:36.487Z,1.20
2022-09-02T15:39:40.315Z,2.70
2022-09-02T15:44:43.859Z,1.90
2022-09-02T15:49:46.961Z,3.50
2022-09-02T15:54:50.052Z,1.60
2022-09-02T15:59:53.438Z,3.50
2022-09-02T16:04:56.665Z,2.60
2022-09-02T16:10:03.479Z,1.50
2022-09-02T16:15:09.030Z,3.50
2022-09-02T16:20:12.818Z,3.20
2022-09-02T16:25:16.114Z,2.60
2022-09-02T16:30:20.664Z,2.30
2022-09-02T16:35:24.101Z,9.40
2022-09-02T16:40:27.737Z,4.40
2022-09-02T16:45:31.348Z,12.30
2022-09-02T16:50:34.595Z,6.40
2022-09-02T16:55:41.827Z,9.80
2022-09-02T17:00:45.446Z,10.10
2022-09-02T17:05:48.593Z,5.70
2022-09-02T17:10:51.774Z,8.40
2022-09-02T17:15:54.946Z,12.10
2022-09-02T17:21:16.982Z,11.80
2022-09-02T17:26:22.302Z,16.20
2022-09-02T17:31:27.458Z,25.20
2022-09-02T17:36:32.205Z,24.80
2022-09-02T17:41:54.506Z,14.20
2022-09-02T17:46:57.972Z,12.50
2022-09-02T17:52:01.951Z,16.50
2022-09-02T17:57:19.666Z,6.20
2022-09-02T18:02:37.409Z,19.20
2022-09-02T18:07:48.763Z,11.20
2022-09-02T18:12:56.144Z,8.80
2022-09-02T18:18:02.441Z,14.70
2022-09-02T18:23:30.576Z,11.00
2022-09-02T18:28:45.633Z,6.90
2022-09-02T18:34:07.471Z,18.70
2022-09-02T18:39:27.259Z,30.80
2022-09-02T18:44:39.145Z,43.00
2022-09-02T18:49:44.760Z,48.50
2022-09-02T18:54:53.733Z,45.60
2022-09-02T19:00:04.113Z,28.30
2022-09-02T19:05:11.238Z,27.80
2022-09-02T19:10:14.675Z,24.30
2022-09-02T19:15:18.553Z,22.10
2022-09-02T19:20:23.114Z,25.30
2022-09-02T19:25:30.363Z,16.00
2022-09-02T19:30:35.726Z,14.80
2022-09-02T19:35:45.761Z,21.80
2022-09-02T19:40:49.907Z,20.70
2022-09-02T19:45:55.613Z,21.70
2022-09-02T19:50:58.849Z,20.40
2022-09-02T19:56:02.962Z,15.60
2022-09-02T20:01:07.160Z,17.90
2022-09-02T20:06:12.824Z,18.90
2022-09-02T20:11:17.271Z,18.40
2022-09-02T20:16:23.358Z,18.30
2022-09-02T20:21:29.968Z,9.80
2022-09-02T20:26:49.428Z,9.60
2022-09-02T20:32:04.035Z,13.20
2022-09-02T20:37:19.332Z,12.00
2022-09-02T20:42:40.417Z,10.00
2022-09-02T20:47:54.880Z,13.10
2022-09-02T20:53:16.068Z,9.00
2022-09-02T20:58:31.157Z,12.90
2022-09-02T21:03:49.569Z,14.30
2022-09-02T21:09:01.380Z,19.70
2022-09-02T21:14:13.023Z,18.30
2022-09-02T21:19:29.886Z,15.40
2022-09-02T21:24:39.421Z,17.30
2022-09-02T21:29:50.883Z,11.50
2022-09-02T21:34:57.869Z,13.60
2022-09-02T21:40:06.728Z,13.50
2022-09-02T21:45:22.668Z,10.00
2022-09-02T21:50:37.128Z,10.40
2022-09-02T21:55:53.712Z,10.00
2022-09-02T22:01:04.586Z,14.50
2022-09-02T22:06:16.441Z,9.10
2022-09-02T22:11:31.998Z,13.00
2022-09-02T22:16:48.098Z,11.80
2022-09-02T22:21:56.094Z,9.80
2022-09-02T22:27:05.835Z,10.30
2022-09-02T22:32:13.542Z,11.00
2022-09-02T22:37:23.800Z,9.40
2022-09-02T22:42:33.661Z,16.60
2022-09-02T22:48:18.725Z,11.80
2022-09-02T22:53:22.155Z,10.70
2022-09-02T22:59:15.241Z,10.00
2022-09-02T23:04:34.085Z,7.90
2022-09-02T23:10:27.002Z,11.10
2022-09-02T23:15:40.958Z,12.00
2022-09-02T23:20:52.942Z,14.20
2022-09-02T23:26:10.621Z,12.20
2022-09-02T23:31:31.184Z,14.20
2022-09-02T23:36:47.445Z,10.70
2022-09-02T23:41:56.866Z,9.10
2022-09-02T23:47:19.454Z,7.80
2022-09-02T23:52:34.597Z,10.70
2022-09-02T23:58:03.121Z,8.90
